Time;durP1;ratioP1;P1;durP2;ratioP2;P2;SDS_P1;SDS_P2;PMS_P1;PMS_P2;Temp;Humidity;BMP_temperature;BMP_pressure;BME280_temperature;BME280_humidity;BME280_pressure;Samples;Min_cycle;Max_cycle;Signal;HPM_P1;HPM_P2
2022/09/14 00:00:27;;;;;;;6.97;4.93;;;17.70;99.90;;;;;;5017080;28;20420;-78
2022/09/14 00:02:55;;;;;;;6.43;4.33;;;17.70;99.90;;;;;;5035231;28;20437;-75
2022/09/14 00:05:34;;;;;;;6.30;4.23;;;17.70;99.90;;;;;;5034852;28;20412;-78
2022/09/14 00:08:01;;;;;;;4.83;4.43;;;17.80;99.90;;;;;;5016962;28;20459;-75
2022/09/14 00:10:29;;;;;;;5.93;4.13;;;17.80;99.90;;;;;;5016777;28;20477;-75
2022/09/14 00:12:59;;;;;;;4.40;3.90;;;17.80;99.90;;;;;;5016854;28;20491;-79
2022/09/14 00:15:28;;;;;;;5.93;4.30;;;17.80;99.90;;;;;;5016885;28;20423;-78
2022/09/14 00:17:58;;;;;;;5.20;4.53;;;17.80;99.90;;;;;;5016758;28;21036;-75
2022/09/14 00:20:26;;;;;;;5.30;3.97;;;17.80;99.90;;;;;;5016931;28;20471;-79
2022/09/14 00:22:55;;;;;;;5.60;4.70;;;17.80;99.90;;;;;;5016879;28;20486;-78
2022/09/14 00:25:25;;;;;;;7.13;4.03;;;17.80;99.90;;;;;;5016848;28;21014;-79
2022/09/14 00:27:52;;;;;;;4.83;4.37;;;17.80;99.90;;;;;;5016904;28;20797;-75
2022/09/14 00:30:23;;;;;;;8.23;4.83;;;17.80;99.90;;;;;;5016486;28;20482;-75
2022/09/14 00:32:54;;;;;;;5.67;4.10;;;17.80;99.90;;;;;;5017374;28;20543;-79
2022/09/14 00:35:20;;;;;;;6.57;4.13;;;17.80;99.90;;;;;;5017225;28;20430;-79
2022/09/14 00:37:50;;;;;;;5.60;4.60;;;17.70;99.90;;;;;;5016427;28;20448;-79
2022/09/14 00:40:21;;;;;;;4.50;3.97;;;17.70;99.90;;;;;;5034317;28;20224;-75
2022/09/14 00:42:52;;;;;;;4.87;4.17;;;17.60;99.90;;;;;;5016237;28;20500;-75
2022/09/14 00:45:25;;;;;;;4.33;4.00;;;17.60;99.90;;;;;;5034168;28;20780;-75
2022/09/14 00:47:57;;;;;;;6.40;5.27;;;17.50;99.90;;;;;;5016571;28;20545;-78
2022/09/14 00:50:24;;;;;;;6.70;5.03;;;17.50;99.90;;;;;;5016338;28;20528;-75
2022/09/14 00:52:55;;;;;;;5.57;4.57;;;17.40;99.90;;;;;;5016317;28;20455;-78
2022/09/14 00:55:24;;;;;;;7.90;5.27;;;17.40;99.90;;;;;;5016792;28;20780;-75
2022/09/14 00:57:55;;;;;;;5.20;4.07;;;17.30;99.90;;;;;;5016214;28;20951;-78
2022/09/14 01:00:28;;;;;;;4.73;4.27;;;17.30;99.90;;;;;;5016151;28;20415;-78
2022/09/14 01:02:55;;;;;;;4.30;3.90;;;17.20;99.90;;;;;;5016101;28;20451;-75
2022/09/14 01:05:48;;;;;;;4.60;4.20;;;17.20;99.90;;;;;;5015894;28;20460;-75
2022/09/14 01:08:45;;;;;;;5.07;4.10;;;17.20;99.90;;;;;;5015887;28;20448;-79
2022/09/14 01:11:18;;;;;;;4.50;4.10;;;17.20;99.90;;;;;;5007432;28;20432;-79
2022/09/14 01:14:10;;;;;;;5.03;4.53;;;17.20;99.90;;;;;;5016220;28;20456;-75
2022/09/14 01:17:00;;;;;;;6.10;3.80;;;17.30;99.90;;;;;;5016491;28;20511;-75
2022/09/14 01:19:58;;;;;;;5.40;4.33;;;17.20;99.90;;;;;;5016134;28;20464;-75
2022/09/14 01:22:44;;;;;;;5.53;4.67;;;17.20;99.90;;;;;;5015819;28;20451;-79
2022/09/14 01:25:31;;;;;;;4.90;4.50;;;17.20;99.90;;;;;;5016361;28;20930;-79
2022/09/14 01:28:09;;;;;;;5.87;4.23;;;17.10;99.90;;;;;;5015695;28;20538;-78
2022/09/14 01:30:40;;;;;;;7.23;5.10;;;17.10;99.90;;;;;;5016151;28;20510;-79
2022/09/14 01:33:37;;;;;;;5.93;4.63;;;17.10;99.90;;;;;;5015939;28;20578;-75
2022/09/14 01:36:13;;;;;;;6.13;4.50;;;17.10;99.90;;;;;;5015944;28;20899;-75
2022/09/14 01:38:54;;;;;;;6.20;4.60;;;17.10;99.90;;;;;;5015694;28;20574;-79
2022/09/14 01:41:30;;;;;;;7.00;4.67;;;17.20;99.90;;;;;;5015706;28;20423;-79
2022/09/14 01:44:15;;;;;;;6.57;4.80;;;17.10;99.90;;;;;;5033391;28;20918;-75
2022/09/14 01:46:49;;;;;;;9.80;4.97;;;17.10;99.90;;;;;;5015614;28;20473;-75
2022/09/14 01:49:17;;;;;;;6.00;5.40;;;17.20;99.90;;;;;;5015716;28;20485;-75
2022/09/14 01:51:55;;;;;;;6.00;4.60;;;17.20;99.90;;;;;;5015605;28;20423;-78
2022/09/14 01:54:34;;;;;;;4.70;4.30;;;17.20;99.90;;;;;;5015457;28;20483;-79
2022/09/14 01:57:15;;;;;;;7.17;4.40;;;17.20;99.90;;;;;;5015426;28;20412;-78
2022/09/14 01:59:48;;;;;;;5.07;4.17;;;17.20;99.90;;;;;;5015930;28;20432;-75
2022/09/14 02:02:31;;;;;;;5.20;4.70;;;17.20;99.90;;;;;;5015637;28;20477;-78
2022/09/14 02:05:19;;;;;;;6.37;5.03;;;17.20;99.90;;;;;;5015668;28;20415;-75
2022/09/14 02:07:50;;;;;;;6.70;4.57;;;17.20;99.90;;;;;;5015557;28;20447;-75
2022/09/14 02:10:18;;;;;;;5.70;4.70;;;17.20;99.90;;;;;;5015630;28;20475;-79
2022/09/14 02:12:48;;;;;;;5.43;4.40;;;17.20;99.90;;;;;;5015413;28;20444;-79
2022/09/14 02:15:20;;;;;;;6.73;4.60;;;17.20;99.90;;;;;;5015720;28;20435;-78
2022/09/14 02:17:50;;;;;;;5.70;5.00;;;17.20;99.90;;;;;;5015433;28;20451;-75
2022/09/14 02:20:33;;;;;;;5.97;4.90;;;17.20;99.90;;;;;;5015887;28;20458;-78
2022/09/14 02:23:00;;;;;;;5.83;5.33;;;17.20;99.90;;;;;;5016351;28;20461;-79
2022/09/14 02:25:31;;;;;;;5.57;5.07;;;17.10;99.90;;;;;;5019042;28;20778;-75
2022/09/14 02:27:59;;;;;;;6.20;5.00;;;17.10;99.90;;;;;;5036691;28;20562;-78
2022/09/14 02:30:34;;;;;;;5.03;4.50;;;17.10;99.90;;;;;;5019000;28;20482;-78
2022/09/14 02:33:35;;;;;;;11.97;4.60;;;17.10;99.90;;;;;;5019007;28;20476;-75
2022/09/14 02:36:15;;;;;;;5.57;5.07;;;17.10;99.90;;;;;;5018840;28;20433;-75
2022/09/14 02:39:13;;;;;;;5.23;4.70;;;17.00;99.90;;;;;;5019035;28;20454;-75
2022/09/14 02:41:49;;;;;;;6.07;5.23;;;17.00;99.90;;;;;;5014260;28;20427;-77
2022/09/14 02:44:28;;;;;;;5.93;4.80;;;17.00;99.90;;;;;;5018926;28;20439;-79
2022/09/14 02:47:20;;;;;;;5.87;5.27;;;16.90;99.90;;;;;;5018453;28;20478;-74
2022/09/14 02:50:16;;;;;;;5.43;4.93;;;16.80;99.90;;;;;;5018648;28;20558;-79
2022/09/14 02:52:51;;;;;;;6.50;5.80;;;16.70;99.90;;;;;;5018188;28;20452;-79
2022/09/14 02:55:25;;;;;;;5.83;5.23;;;16.70;99.90;;;;;;5036467;28;20461;-79
2022/09/14 02:58:09;;;;;;;6.20;5.60;;;16.60;99.90;;;;;;5018473;28;20841;-75
2022/09/14 03:00:39;;;;;;;6.63;5.17;;;16.60;99.90;;;;;;5018088;28;20428;-75
2022/09/14 03:03:07;;;;;;;8.00;5.47;;;16.50;99.90;;;;;;5018289;28;20547;-78
2022/09/14 03:05:41;;;;;;;8.00;5.90;;;16.50;99.90;;;;;;5018106;28;20469;-75
2022/09/14 03:08:09;;;;;;;5.87;5.30;;;16.40;99.90;;;;;;5018349;28;20963;-78
2022/09/14 03:10:36;;;;;;;6.53;5.33;;;16.40;99.90;;;;;;5018275;28;20522;-75
2022/09/14 03:13:04;;;;;;;6.47;5.73;;;16.40;99.90;;;;;;5018055;28;20530;-75
2022/09/14 03:15:31;;;;;;;7.03;5.20;;;16.40;99.90;;;;;;5018166;28;20951;-79
2022/09/14 03:17:58;;;;;;;7.20;6.40;;;16.40;99.90;;;;;;5017904;28;20605;-75
2022/09/14 03:20:28;;;;;;;8.93;6.13;;;16.40;99.90;;;;;;5017478;28;20561;-79
2022/09/14 03:22:54;;;;;;;7.63;4.87;;;16.40;99.90;;;;;;5017965;28;20439;-79
2022/09/14 03:25:21;;;;;;;8.83;5.60;;;16.50;99.90;;;;;;5018368;28;20422;-79
2022/09/14 03:27:57;;;;;;;7.57;6.50;;;16.40;99.90;;;;;;5017738;28;20478;-75
2022/09/14 03:30:28;;;;;;;8.83;6.80;;;16.40;99.90;;;;;;5017889;28;20480;-78
2022/09/14 03:33:00;;;;;;;7.40;6.40;;;16.30;99.90;;;;;;5017411;28;20800;-76
2022/09/14 03:35:31;;;;;;;11.17;5.80;;;16.30;99.90;;;;;;5016936;28;20416;-75
2022/09/14 03:38:02;;;;;;;11.50;5.50;;;16.20;99.90;;;;;;5017483;28;20862;-79
2022/09/14 03:40:31;;;;;;;9.63;6.40;;;16.20;99.90;;;;;;5017465;28;20431;-78
2022/09/14 03:42:58;;;;;;;6.63;5.70;;;16.20;99.90;;;;;;5017495;28;20440;-75
2022/09/14 03:45:24;;;;;;;6.53;5.80;;;16.10;99.90;;;;;;5017791;28;20506;-76
2022/09/14 03:47:53;;;;;;;11.27;6.90;;;16.10;99.90;;;;;;5034989;28;20445;-75
2022/09/14 03:50:26;;;;;;;6.87;6.00;;;16.10;99.90;;;;;;5017371;28;20483;-79
2022/09/14 03:52:55;;;;;;;10.30;6.00;;;16.10;99.90;;;;;;5017175;28;20436;-76
2022/09/14 03:55:26;;;;;;;8.17;6.80;;;16.10;99.90;;;;;;5016661;28;20785;-80
2022/09/14 03:57:55;;;;;;;7.40;6.03;;;16.10;99.90;;;;;;5016975;28;20994;-75
2022/09/14 04:00:23;;;;;;;8.13;6.77;;;16.00;99.90;;;;;;5016663;28;20427;-75
2022/09/14 04:02:52;;;;;;;38.60;22.83;;;16.00;99.90;;;;;;5017488;28;20454;-75
2022/09/14 04:05:19;;;;;;;8.40;7.20;;;16.00;99.90;;;;;;5017694;28;20412;-74
2022/09/14 04:07:46;;;;;;;11.20;8.00;;;16.00;99.90;;;;;;5016783;28;20451;-74
2022/09/14 04:10:13;;;;;;;8.90;6.83;;;16.00;99.90;;;;;;5017097;28;20479;-74
2022/09/14 04:12:49;;;;;;;8.80;7.50;;;16.00;99.90;;;;;;5016703;28;20451;-79
2022/09/14 04:15:23;;;;;;;9.47;7.60;;;16.00;99.90;;;;;;5017180;28;20447;-79
2022/09/14 04:17:57;;;;;;;7.37;6.57;;;16.00;99.90;;;;;;5017417;28;20981;-74
2022/09/14 04:20:24;;;;;;;8.37;6.70;;;16.00;99.90;;;;;;5017214;28;20979;-74
2022/09/14 04:22:51;;;;;;;9.33;6.93;;;15.90;99.90;;;;;;5016813;28;20948;-74
2022/09/14 04:25:19;;;;;;;9.03;7.13;;;15.90;99.90;;;;;;5016792;28;20469;-74
2022/09/14 04:27:51;;;;;;;8.73;7.27;;;15.90;99.90;;;;;;5016414;28;20486;-80
2022/09/14 04:30:20;;;;;;;9.17;7.33;;;15.90;99.90;;;;;;5016981;28;20475;-75
2022/09/14 04:32:46;;;;;;;10.83;7.27;;;15.90;99.90;;;;;;4996217;28;20984;-75
2022/09/14 04:35:19;;;;;;;9.83;8.17;;;15.80;99.90;;;;;;4996081;28;20907;-78
2022/09/14 04:37:45;;;;;;;13.20;8.50;;;15.90;99.90;;;;;;4992578;28;20210;-74
2022/09/14 04:40:14;;;;;;;14.17;8.07;;;15.90;99.90;;;;;;4996776;28;20417;-75
2022/09/14 04:42:43;;;;;;;10.87;7.73;;;15.90;99.90;;;;;;5014589;28;20443;-74
2022/09/14 04:45:12;;;;;;;8.10;7.30;;;15.90;99.90;;;;;;4996867;28;20530;-74
2022/09/14 04:47:44;;;;;;;9.30;7.87;;;15.90;99.90;;;;;;4995503;28;21062;-74
2022/09/14 04:50:12;;;;;;;9.90;7.83;;;16.00;99.90;;;;;;4996490;28;20472;-74
2022/09/14 04:52:41;;;;;;;9.37;7.80;;;16.00;99.90;;;;;;4996060;28;20452;-74
2022/09/14 04:55:12;;;;;;;9.57;8.07;;;16.10;99.90;;;;;;5015387;28;20427;-80
2022/09/14 04:57:42;;;;;;;9.50;7.50;;;16.20;99.90;;;;;;5014158;28;20463;-74
2022/09/14 05:00:11;;;;;;;13.60;7.47;;;16.20;99.90;;;;;;5006116;28;20432;-74
2022/09/14 05:02:45;;;;;;;10.67;7.80;;;16.20;99.90;;;;;;5017482;28;20809;-74
2022/09/14 05:05:13;;;;;;;9.20;7.43;;;16.20;99.90;;;;;;5005461;28;20439;-79
2022/09/14 05:07:48;;;;;;;8.97;7.60;;;16.20;99.90;;;;;;5004131;28;20456;-81
2022/09/14 05:10:21;;;;;;;9.17;8.20;;;16.20;99.90;;;;;;5032474;28;20475;-80
2022/09/14 05:12:48;;;;;;;9.90;8.50;;;16.20;99.90;;;;;;5022066;28;20529;-74
2022/09/14 05:15:18;;;;;;;10.10;8.30;;;16.20;99.90;;;;;;4999306;28;20862;-81
2022/09/14 05:17:49;;;;;;;8.93;7.70;;;16.20;99.90;;;;;;5013790;28;20202;-77
2022/09/14 05:20:16;;;;;;;9.37;8.37;;;16.20;99.90;;;;;;5032205;28;20416;-75
2022/09/14 05:22:45;;;;;;;8.93;8.07;;;16.20;99.90;;;;;;5031014;28;20546;-80
2022/09/14 05:25:11;;;;;;;11.47;9.00;;;16.20;99.90;;;;;;5032437;28;20475;-81
2022/09/14 05:27:38;;;;;;;10.13;8.37;;;16.30;99.90;;;;;;5011476;28;20464;-74
2022/09/14 05:30:07;;;;;;;12.23;9.20;;;16.30;99.90;;;;;;4995376;28;20889;-81
2022/09/14 05:32:33;;;;;;;9.90;8.90;;;16.30;99.90;;;;;;5020415;28;20467;-80
2022/09/14 05:35:11;;;;;;;11.87;8.43;;;16.30;99.90;;;;;;5015413;28;20463;-80
2022/09/14 05:37:40;;;;;;;11.60;8.77;;;16.40;99.90;;;;;;5015783;28;20226;-75
2022/09/14 05:40:11;;;;;;;13.53;8.37;;;16.50;99.90;;;;;;5031848;28;21019;-75
2022/09/14 05:42:37;;;;;;;10.00;8.60;;;16.50;99.90;;;;;;5012652;28;20470;-81
2022/09/14 05:45:06;;;;;;;14.20;9.50;;;16.60;99.90;;;;;;5012901;28;20423;-76
2022/09/14 05:47:33;;;;;;;10.70;8.83;;;16.60;99.90;;;;;;5007704;28;20455;-74
2022/09/14 05:49:59;;;;;;;11.63;9.17;;;16.70;99.90;;;;;;5015276;28;20478;-80
2022/09/14 05:52:28;;;;;;;9.37;8.37;;;16.80;99.90;;;;;;5029894;28;20451;-78
2022/09/14 05:55:06;;;;;;;10.10;7.97;;;16.80;99.90;;;;;;5020922;28;20903;-74
2022/09/14 05:57:36;;;;;;;10.00;8.60;;;16.90;99.90;;;;;;5013870;28;20988;-80
2022/09/14 06:00:03;;;;;;;10.27;8.60;;;17.00;99.90;;;;;;5032736;28;20436;-75
2022/09/14 06:02:35;;;;;;;9.90;8.20;;;17.00;99.90;;;;;;5017176;28;20605;-75
2022/09/14 06:05:15;;;;;;;11.47;9.80;;;17.20;99.90;;;;;;5018308;28;20431;-76
2022/09/14 06:07:51;;;;;;;11.20;10.00;;;17.30;99.90;;;;;;5018705;28;20458;-74
2022/09/14 06:10:25;;;;;;;11.40;8.30;;;17.40;99.90;;;;;;5016322;28;20474;-80
2022/09/14 06:12:53;;;;;;;12.33;8.27;;;17.50;99.90;;;;;;5015906;28;20454;-81
2022/09/14 06:15:23;;;;;;;11.50;10.13;;;17.60;99.90;;;;;;5031785;28;20411;-79
2022/09/14 06:17:52;;;;;;;12.73;10.13;;;17.70;99.90;;;;;;5013273;28;20454;-74
2022/09/14 06:20:24;;;;;;;10.13;9.03;;;17.80;99.90;;;;;;5023430;28;20431;-81
2022/09/14 06:23:04;;;;;;;12.00;9.33;;;17.90;99.90;;;;;;5032695;28;20449;-82
2022/09/14 06:25:34;;;;;;;12.97;9.30;;;18.00;99.90;;;;;;5030626;28;20445;-74
2022/09/14 06:28:09;;;;;;;18.93;9.20;;;18.10;99.90;;;;;;5024611;28;20971;-80
2022/09/14 06:30:35;;;;;;;10.80;8.97;;;18.20;99.90;;;;;;5015858;28;21003;-80
2022/09/14 06:33:06;;;;;;;11.97;8.87;;;18.30;99.90;;;;;;5016712;28;20457;-80
2022/09/14 06:35:41;;;;;;;10.50;7.47;;;18.40;99.90;;;;;;5016086;28;20188;-74
2022/09/14 06:38:07;;;;;;;9.80;8.10;;;18.50;99.90;;;;;;5015951;28;20460;-74
2022/09/14 06:40:36;;;;;;;8.90;7.33;;;18.60;99.90;;;;;;5014240;28;21012;-79
2022/09/14 06:43:03;;;;;;;9.13;8.23;;;18.70;99.90;;;;;;5013829;28;20513;-79
2022/09/14 06:45:32;;;;;;;9.60;7.57;;;18.80;99.90;;;;;;5015511;28;21001;-74
2022/09/14 06:48:00;;;;;;;7.30;6.60;;;19.00;99.90;;;;;;5032806;28;20440;-79
2022/09/14 06:50:29;;;;;;;9.10;8.00;;;19.10;99.90;;;;;;5016035;28;20465;-74
2022/09/14 06:53:04;;;;;;;9.00;7.17;;;19.10;99.90;;;;;;5016383;28;20963;-74
2022/09/14 06:55:32;;;;;;;8.93;6.73;;;19.20;99.90;;;;;;5016366;28;20965;-74
2022/09/14 06:58:00;;;;;;;7.97;6.67;;;19.30;99.90;;;;;;4996014;28;20451;-75
2022/09/14 07:00:28;;;;;;;9.60;8.67;;;19.40;99.90;;;;;;4995823;28;20989;-80
2022/09/14 07:02:55;;;;;;;8.77;7.80;;;19.50;99.90;;;;;;4998232;28;20826;-81
2022/09/14 07:05:23;;;;;;;8.60;6.27;;;19.60;99.90;;;;;;4991753;28;20572;-81
2022/09/14 07:07:52;;;;;;;9.10;6.67;;;19.70;99.90;;;;;;4993481;28;20459;-82
2022/09/14 07:10:19;;;;;;;7.60;6.17;;;19.80;99.90;;;;;;5003604;28;20479;-80
2022/09/14 07:12:57;;;;;;;7.30;6.60;;;19.90;99.90;;;;;;5000722;28;20499;-74
2022/09/14 07:15:23;;;;;;;8.40;6.50;;;20.10;99.90;;;;;;5005561;28;20584;-74
2022/09/14 07:17:52;;;;;;;8.70;6.87;;;20.20;99.90;;;;;;5001358;28;20460;-74
2022/09/14 07:20:21;;;;;;;13.30;7.97;;;20.20;99.90;;;;;;4997085;28;20468;-80
2022/09/14 07:22:51;;;;;;;7.40;6.70;;;20.40;99.90;;;;;;4990779;28;20456;-80
2022/09/14 07:25:17;;;;;;;7.90;6.83;;;20.50;99.90;;;;;;4997805;28;20436;-82
2022/09/14 07:27:48;;;;;;;8.23;6.73;;;20.60;99.90;;;;;;4998138;28;20487;-74
2022/09/14 07:30:25;;;;;;;9.93;6.23;;;20.70;99.90;;;;;;4997488;28;20551;-80
2022/09/14 07:32:51;;;;;;;6.73;6.10;;;20.80;99.90;;;;;;4996628;28;20979;-81
2022/09/14 07:35:20;;;;;;;8.40;6.30;;;20.90;99.90;;;;;;4997520;28;20433;-75
2022/09/14 07:37:53;;;;;;;6.83;5.80;;;21.10;99.90;;;;;;4997174;28;20515;-79
2022/09/14 07:40:26;;;;;;;7.17;6.27;;;21.10;99.90;;;;;;4995330;28;20433;-81
2022/09/14 07:42:58;;;;;;;8.00;5.77;;;21.30;99.90;;;;;;4994450;28;20456;-75
2022/09/14 07:45:27;;;;;;;9.00;5.30;;;21.40;99.90;;;;;;4993928;28;20439;-73
2022/09/14 07:47:57;;;;;;;7.57;6.87;;;21.50;99.90;;;;;;4995018;28;20461;-81
2022/09/14 07:50:27;;;;;;;10.03;6.70;;;21.70;99.90;;;;;;5011856;28;20479;-80
2022/09/14 07:52:53;;;;;;;10.77;7.30;;;21.70;99.90;;;;;;4994338;28;20452;-80
2022/09/14 07:55:21;;;;;;;8.27;5.73;;;21.90;99.90;;;;;;5007271;28;20452;-79
2022/09/14 07:57:52;;;;;;;7.13;6.37;;;22.00;99.90;;;;;;5010427;28;20202;-74
2022/09/14 08:00:23;;;;;;;6.60;5.60;;;22.10;99.90;;;;;;5025634;28;20410;-74
2022/09/14 08:02:54;;;;;;;8.17;6.63;;;22.20;99.90;;;;;;5008967;28;20849;-81
2022/09/14 08:05:22;;;;;;;7.20;5.70;;;22.30;99.90;;;;;;5013210;28;20419;-82
2022/09/14 08:07:58;;;;;;;8.70;5.77;;;22.40;99.90;;;;;;5012827;28;20456;-75
2022/09/14 08:10:31;;;;;;;7.60;5.60;;;22.50;99.90;;;;;;5025042;28;21067;-80
2022/09/14 08:13:05;;;;;;;8.30;5.40;;;22.60;99.90;;;;;;5011822;28;20570;-80
2022/09/14 08:15:32;;;;;;;6.43;5.20;;;22.70;99.90;;;;;;5012247;28;20436;-74
2022/09/14 08:18:19;;;;;;;5.97;5.37;;;22.80;99.90;;;;;;5030956;28;20807;-75
2022/09/14 08:20:51;;;;;;;7.93;5.07;;;22.90;99.90;;;;;;5018851;28;20901;-81
2022/09/14 08:23:22;;;;;;;5.27;4.80;;;23.00;99.90;;;;;;5015534;28;20463;-74
2022/09/14 08:25:52;;;;;;;5.63;4.93;;;23.40;99.90;;;;;;5008255;28;20439;-81
2022/09/14 08:28:22;;;;;;;5.03;4.60;;;23.90;99.90;;;;;;5007620;28;20446;-74
2022/09/14 08:30:48;;;;;;;9.20;5.10;;;24.60;99.90;;;;;;5008475;28;20617;-79
2022/09/14 08:33:17;;;;;;;7.30;4.07;;;25.50;99.90;;;;;;5009042;28;20463;-74
2022/09/14 08:39:11;;;;;;;6.00;4.33;;;26.70;99.90;;;;;;5059769;22;20553;-94
2022/09/14 08:41:43;;;;;;;5.83;5.00;;;26.90;99.90;;;;;;5009710;28;20464;-89
2022/09/14 08:44:26;;;;;;;5.17;4.67;;;26.90;99.90;;;;;;5011642;28;20441;-95
2022/09/14 08:47:04;;;;;;;5.80;5.20;;;26.60;99.90;;;;;;4991738;28;20596;-94
2022/09/14 08:49:37;;;;;;;5.33;4.40;;;26.40;99.90;;;;;;4985587;28;20488;-94
2022/09/14 08:52:03;;;;;;;4.60;3.80;;;26.20;99.90;;;;;;4989804;28;20471;-90
2022/09/14 08:54:32;;;;;;;9.97;4.27;;;26.00;99.90;;;;;;4993721;28;20432;-88
2022/09/14 08:57:22;;;;;;;6.07;4.20;;;25.90;99.90;;;;;;5000038;28;20425;-95
2022/09/14 08:59:53;;;;;;;4.43;4.03;;;25.60;99.90;;;;;;4980168;28;20478;-89
2022/09/14 09:03:08;;;;;;;4.63;4.13;;;25.50;99.90;;;;;;4994081;28;20436;-90
2022/09/14 09:06:01;;;;;;;4.03;3.73;;;25.40;99.90;;;;;;4940105;28;20471;-95
2022/09/14 09:08:41;;;;;;;4.37;3.97;;;25.30;99.90;;;;;;5008059;28;20440;-90
2022/09/14 09:11:14;;;;;;;4.80;3.33;;;25.30;99.90;;;;;;4992414;28;20567;-94
2022/09/14 09:13:41;;;;;;;3.70;3.40;;;25.40;99.90;;;;;;5004843;28;20465;-94
2022/09/14 09:16:10;;;;;;;6.90;3.80;;;25.40;99.90;;;;;;4987213;28;20836;-95
2022/09/14 09:18:46;;;;;;;4.20;3.63;;;25.50;99.90;;;;;;5007302;28;20464;-94
2022/09/14 09:21:29;;;;;;;3.33;2.97;;;25.50;99.90;;;;;;4990504;28;20435;-95
2022/09/14 09:24:08;;;;;;;3.80;3.50;;;25.50;99.90;;;;;;4991329;28;20792;-94
2022/09/14 09:26:34;;;;;;;3.80;3.50;;;25.80;99.90;;;;;;5007818;28;20784;-94
2022/09/14 09:29:02;;;;;;;3.50;3.20;;;26.00;99.90;;;;;;5002680;28;20423;-94
2022/09/14 09:31:34;;;;;;;5.97;4.70;;;26.00;99.90;;;;;;5008977;28;20182;-94
2022/09/14 09:34:01;;;;;;;6.17;3.70;;;26.00;99.90;;;;;;5027668;28;20403;-89
2022/09/14 09:36:33;;;;;;;3.63;3.30;;;26.00;99.90;;;;;;5008305;28;20420;-90
2022/09/14 09:38:59;;;;;;;3.93;3.20;;;26.00;99.90;;;;;;4985127;28;20476;-94
2022/09/14 09:41:34;;;;;;;3.90;3.10;;;25.90;99.90;;;;;;5008380;28;20515;-89
2022/09/14 09:44:10;;;;;;;4.30;3.27;;;25.80;99.90;;;;;;5009242;28;20293;-91
2022/09/14 09:46:44;;;;;;;4.10;2.63;;;25.90;99.90;;;;;;5015392;28;20458;-94
2022/09/14 09:49:36;;;;;;;5.67;4.43;;;25.90;99.90;;;;;;4991821;28;20505;-94
2022/09/14 09:52:16;;;;;;;3.10;2.80;;;25.90;99.90;;;;;;5001888;28;20823;-94
2022/09/14 09:54:50;;;;;;;7.43;3.63;;;26.00;99.90;;;;;;5002043;28;20697;-89
2022/09/14 09:57:31;;;;;;;4.23;3.00;;;26.00;99.90;;;;;;4976078;28;20610;-89
2022/09/14 10:00:23;;;;;;;4.40;2.90;;;26.00;99.90;;;;;;4999184;28;20451;-95
2022/09/14 10:02:49;;;;;;;2.70;2.43;;;26.10;99.90;;;;;;5005044;28;20467;-89
2022/09/14 10:05:20;;;;;;;3.37;2.87;;;26.10;99.90;;;;;;4984597;28;20989;-94
2022/09/14 10:07:49;;;;;;;3.17;2.70;;;26.00;99.90;;;;;;5012043;28;20520;-90
2022/09/14 10:10:17;;;;;;;4.40;2.70;;;26.00;99.90;;;;;;4986751;28;20477;-94
2022/09/14 10:12:52;;;;;;;2.73;2.47;;;26.10;99.90;;;;;;5001670;28;20437;-94
2022/09/14 10:15:20;;;;;;;2.57;2.37;;;26.10;99.90;;;;;;4991898;28;20649;-94
2022/09/14 10:18:05;;;;;;;3.80;2.40;;;26.10;99.90;;;;;;4997099;28;20453;-90
2022/09/14 10:20:31;;;;;;;5.60;2.50;;;26.20;99.90;;;;;;4998550;28;20497;-94
2022/09/14 10:23:17;;;;;;;2.83;2.40;;;26.20;99.90;;;;;;4989507;28;20658;-89
2022/09/14 10:25:47;;;;;;;3.27;2.50;;;26.20;99.90;;;;;;4992986;28;20452;-89
2022/09/14 10:28:31;;;;;;;3.20;2.90;;;26.20;99.90;;;;;;5010304;28;20454;-95
2022/09/14 10:31:01;;;;;;;4.17;3.20;;;26.30;99.90;;;;;;5010713;28;20480;-95
2022/09/14 10:33:28;;;;;;;3.30;2.67;;;26.40;99.90;;;;;;4994773;28;20443;-94
2022/09/14 10:36:13;;;;;;;5.33;3.37;;;26.50;99.90;;;;;;4993628;28;20586;-95
2022/09/14 10:38:53;;;;;;;3.33;3.03;;;26.50;99.90;;;;;;4985230;28;20492;-89
2022/09/14 10:41:54;;;;;;;3.07;2.87;;;26.60;99.90;;;;;;4968277;28;21008;-94
2022/09/14 10:44:39;;;;;;;3.27;2.97;;;26.60;99.90;;;;;;4989876;28;20450;-89
2022/09/14 10:47:14;;;;;;;3.67;3.37;;;26.60;99.90;;;;;;4998368;28;20449;-94
2022/09/14 10:49:42;;;;;;;4.50;2.97;;;26.60;99.90;;;;;;4996801;28;21215;-95
2022/09/14 10:52:18;;;;;;;5.93;2.90;;;26.70;99.90;;;;;;4993799;28;20449;-94
2022/09/14 10:55:03;;;;;;;3.10;2.70;;;26.70;99.90;;;;;;4990658;28;20528;-90
2022/09/14 10:57:53;;;;;;;3.27;2.97;;;26.70;99.90;;;;;;4994593;28;20448;-90
2022/09/14 11:00:19;;;;;;;2.93;2.73;;;26.80;99.90;;;;;;4977190;28;20460;-95
2022/09/14 11:02:49;;;;;;;3.10;2.90;;;26.90;99.90;;;;;;4976482;28;20440;-94
2022/09/14 11:05:15;;;;;;;3.00;2.80;;;26.90;99.90;;;;;;4985824;28;20495;-92
2022/09/14 11:08:00;;;;;;;3.50;3.20;;;26.90;99.90;;;;;;4987904;28;20465;-90
2022/09/14 11:10:35;;;;;;;3.67;3.20;;;26.90;99.90;;;;;;4994208;28;20234;-94
2022/09/14 11:13:22;;;;;;;3.00;2.80;;;26.90;99.90;;;;;;4985846;28;20452;-95
2022/09/14 11:16:03;;;;;;;3.60;2.90;;;26.90;99.90;;;;;;4984305;28;20449;-88
2022/09/14 11:18:28;;;;;;;2.97;2.77;;;26.90;99.90;;;;;;4984920;28;20483;-95
2022/09/14 11:20:57;;;;;;;2.93;2.73;;;26.90;99.90;;;;;;5002121;28;20492;-90
2022/09/14 11:23:29;;;;;;;3.10;2.83;;;26.90;99.90;;;;;;4984768;28;20223;-90
2022/09/14 11:26:20;;;;;;;4.00;3.60;;;26.90;99.90;;;;;;4980194;28;20500;-89
2022/09/14 11:28:59;;;;;;;3.40;3.10;;;26.80;99.90;;;;;;4977953;28;20490;-89
2022/09/14 11:31:33;;;;;;;3.47;2.90;;;26.80;99.90;;;;;;4998991;28;20440;-94
2022/09/14 11:34:12;;;;;;;4.20;3.13;;;26.80;99.90;;;;;;4982396;28;20421;-90
2022/09/14 11:36:51;;;;;;;4.40;3.00;;;26.80;99.90;;;;;;4973734;28;20462;-94
2022/09/14 11:39:42;;;;;;;5.20;2.97;;;26.80;99.90;;;;;;4978067;28;20486;-91
2022/09/14 11:42:11;;;;;;;3.30;2.83;;;26.80;99.90;;;;;;5002102;28;20438;-90
2022/09/14 11:44:39;;;;;;;3.00;2.60;;;26.80;99.90;;;;;;4978294;28;20442;-94
2022/09/14 11:47:13;;;;;;;3.30;3.00;;;26.90;99.90;;;;;;4966381;28;20492;-95
2022/09/14 11:49:51;;;;;;;4.07;3.07;;;26.90;99.90;;;;;;4966454;28;20482;-89
2022/09/14 11:52:20;;;;;;;3.13;2.93;;;26.90;99.90;;;;;;4966053;28;20453;-89
2022/09/14 11:54:47;;;;;;;4.60;3.00;;;26.90;99.90;;;;;;4977052;28;20532;-89
2022/09/14 11:57:19;;;;;;;3.83;3.20;;;27.00;99.90;;;;;;4991848;28;20825;-90
2022/09/14 11:59:51;;;;;;;2.97;2.70;;;27.00;99.90;;;;;;4992704;28;20481;-90
2022/09/14 12:02:22;;;;;;;3.90;3.20;;;27.10;99.90;;;;;;4993911;28;20433;-89
2022/09/14 12:05:03;;;;;;;3.83;2.80;;;27.10;99.90;;;;;;4981716;28;20546;-95
2022/09/14 12:07:38;;;;;;;3.20;2.60;;;27.20;99.90;;;;;;4973247;28;20516;-95
2022/09/14 12:10:13;;;;;;;5.60;2.83;;;27.20;99.90;;;;;;4996964;28;20900;-96
2022/09/14 12:12:56;;;;;;;3.00;2.43;;;27.20;99.90;;;;;;4975784;28;20457;-90
2022/09/14 12:15:24;;;;;;;4.40;2.33;;;27.20;99.90;;;;;;4996583;28;20450;-90
2022/09/14 12:18:12;;;;;;;3.17;2.40;;;27.20;99.90;;;;;;4983930;28;20484;-95
2022/09/14 12:20:47;;;;;;;3.43;2.73;;;27.20;99.90;;;;;;4974797;28;20855;-95
2022/09/14 12:23:26;;;;;;;3.37;2.40;;;27.20;99.90;;;;;;4987343;28;20475;-94
2022/09/14 12:26:18;;;;;;;3.53;2.27;;;27.20;99.90;;;;;;4988513;28;20451;-93
2022/09/14 12:28:54;;;;;;;3.13;2.50;;;27.20;99.90;;;;;;4959872;28;20434;-95
2022/09/14 12:31:58;;;;;;;8.90;2.40;;;27.20;99.90;;;;;;4976492;28;20465;-90
2022/09/14 12:34:32;;;;;;;3.57;2.90;;;27.30;99.90;;;;;;4982218;28;20523;-89
2022/09/14 12:37:01;;;;;;;3.60;2.40;;;27.30;99.90;;;;;;5000627;28;20443;-95
2022/09/14 12:39:31;;;;;;;3.60;2.40;;;27.30;99.90;;;;;;4990713;28;20506;-90
2022/09/14 12:42:00;;;;;;;3.73;2.80;;;27.30;99.90;;;;;;4975836;28;20448;-90
2022/09/14 12:44:42;;;;;;;2.80;2.60;;;27.30;99.90;;;;;;4976245;28;20441;-90
2022/09/14 12:47:27;;;;;;;2.57;2.37;;;27.30;99.90;;;;;;5001496;28;20437;-90
2022/09/14 12:49:56;;;;;;;3.90;2.80;;;27.30;99.90;;;;;;5011092;28;20560;-94
2022/09/14 12:52:31;;;;;;;2.70;2.47;;;27.30;99.90;;;;;;4995140;28;20435;-90
2022/09/14 12:55:35;;;;;;;2.53;2.33;;;27.30;99.90;;;;;;4975874;28;20542;-90
2022/09/14 12:58:32;;;;;;;4.20;2.53;;;27.30;99.90;;;;;;4940114;28;20432;-95
2022/09/14 13:01:15;;;;;;;4.23;2.60;;;27.40;99.90;;;;;;4974889;28;20441;-95
2022/09/14 13:03:47;;;;;;;3.30;2.03;;;27.40;99.90;;;;;;4998273;28;20423;-95
2022/09/14 13:06:13;;;;;;;4.90;2.43;;;27.50;99.90;;;;;;4993350;28;20895;-90
2022/09/14 13:08:44;;;;;;;2.90;2.43;;;27.50;99.90;;;;;;4990783;28;20510;-90
2022/09/14 13:11:18;;;;;;;3.63;2.30;;;27.50;99.90;;;;;;4973217;28;20804;-94
2022/09/14 13:13:46;;;;;;;3.47;2.23;;;27.50;99.90;;;;;;4971462;28;20452;-94
2022/09/14 13:16:23;;;;;;;5.00;2.13;;;27.60;99.90;;;;;;4970134;28;20779;-95
2022/09/14 13:18:58;;;;;;;4.63;2.10;;;27.60;99.90;;;;;;4970505;28;20669;-94
2022/09/14 13:21:24;;;;;;;3.03;2.20;;;27.60;99.90;;;;;;4976398;28;20450;-95